La Paz, Honduras
Current Conditions -  °F | °C
As of 7:00 PM on Monday 26 Jan 2015 (Local Time) from MHTG Reporting Station
Drizzle Drizzle  
Wind Chill: 61°   Ceiling: 2000
Heat Index: 61°   Visibility: 3mi
Dew Point: 59°   Wind: 12mph
Humidity: 94%   Direction: 10°N
Pressure: 30.15"   Gusts: NA
Location:  14.2°N, 87.4°W
Report Text: MHTG 270100Z 01010KT 5000 -DZ FEW010 BKN020 16/15 Q1021 A3015 NOSIG
Loading
Personal Weather Stations






























Interactive Weather Map New forecast layout! Learn more

10-Day Weather Forecast

Advertisements
Track Severe Weather on mobile